Terminal Aerodrome Forecast
Issued by NWS

Home | Current Version | Previous Version | Text Only | Print | Product List | Glossary On
Versions: 1 2 3 4 5 6 7 8 9 10 11 12 13 14 15 16 17 18 19 20 21 22 23 24 25 26 27 28 29 30 31 32 33 34 35 36
000
FTAK31 PANC 042340
TAFACD
TAF
PACD 042340Z 0500/0524 14028G38KT P6SM SCT025 OVC035
      TEMPO 0500/0504 -RA BKN025
     FM050400 12015G22KT P6SM -RA SCT018 OVC022
     FM050800 17012KT P6SM SCT020 BKN030
     FM052000 15015G22KT P6SM -SHRA SCT025=

USA.gov is the U.S. government's official web portal to all federal, state and local government web resources and services.